sensor_id;sensor_type;location;lat;lon;timestamp;P1;durP1;ratioP1;P2;durP2;ratioP2
26588;SDS011;14235;48.532;8.722;2024-03-02T00:02:14;4.47;;;3.75;;
26588;SDS011;14235;48.532;8.722;2024-03-02T00:04:40;4.25;;;3.85;;
26588;SDS011;14235;48.532;8.722;2024-03-02T00:07:09;4.45;;;4.00;;
26588;SDS011;14235;48.532;8.722;2024-03-02T00:09:36;3.95;;;3.53;;
26588;SDS011;14235;48.532;8.722;2024-03-02T00:12:02;4.10;;;3.70;;
26588;SDS011;14235;48.532;8.722;2024-03-02T00:14:29;5.50;;;3.55;;
26588;SDS011;14235;48.532;8.722;2024-03-02T00:16:55;4.38;;;3.90;;
26588;SDS011;14235;48.532;8.722;2024-03-02T00:19:21;6.40;;;4.28;;
26588;SDS011;14235;48.532;8.722;2024-03-02T00:21:48;4.82;;;4.15;;
26588;SDS011;14235;48.532;8.722;2024-03-02T00:24:21;5.80;;;4.50;;
26588;SDS011;14235;48.532;8.722;2024-03-02T00:26:47;4.38;;;3.85;;
26588;SDS011;14235;48.532;8.722;2024-03-02T00:29:15;4.32;;;3.92;;
26588;SDS011;14235;48.532;8.722;2024-03-02T00:31:41;7.28;;;4.80;;
26588;SDS011;14235;48.532;8.722;2024-03-02T00:34:07;4.32;;;3.92;;
26588;SDS011;14235;48.532;8.722;2024-03-02T00:36:36;3.80;;;3.50;;
26588;SDS011;14235;48.532;8.722;2024-03-02T00:39:02;4.20;;;3.40;;
26588;SDS011;14235;48.532;8.722;2024-03-02T00:41:31;5.07;;;3.65;;
26588;SDS011;14235;48.532;8.722;2024-03-02T00:44:00;4.57;;;4.10;;
26588;SDS011;14235;48.532;8.722;2024-03-02T00:46:33;4.95;;;3.65;;
26588;SDS011;14235;48.532;8.722;2024-03-02T00:49:00;3.63;;;3.33;;
26588;SDS011;14235;48.532;8.722;2024-03-02T00:51:28;4.72;;;4.22;;
26588;SDS011;14235;48.532;8.722;2024-03-02T00:53:55;4.63;;;3.70;;
26588;SDS011;14235;48.532;8.722;2024-03-02T00:56:22;4.30;;;3.60;;
26588;SDS011;14235;48.532;8.722;2024-03-02T00:58:48;4.70;;;3.47;;
26588;SDS011;14235;48.532;8.722;2024-03-02T01:01:14;4.15;;;3.45;;
26588;SDS011;14235;48.532;8.722;2024-03-02T01:03:41;4.63;;;3.35;;
26588;SDS011;14235;48.532;8.722;2024-03-02T01:06:07;4.20;;;3.33;;
26588;SDS011;14235;48.532;8.722;2024-03-02T01:08:34;3.88;;;3.53;;
26588;SDS011;14235;48.532;8.722;2024-03-02T01:11:00;3.47;;;3.17;;
26588;SDS011;14235;48.532;8.722;2024-03-02T01:13:26;3.70;;;3.40;;
26588;SDS011;14235;48.532;8.722;2024-03-02T01:15:51;7.90;;;4.13;;
26588;SDS011;14235;48.532;8.722;2024-03-02T01:18:18;3.88;;;3.40;;
26588;SDS011;14235;48.532;8.722;2024-03-02T01:20:44;3.50;;;3.20;;
26588;SDS011;14235;48.532;8.722;2024-03-02T01:23:10;8.18;;;4.05;;
26588;SDS011;14235;48.532;8.722;2024-03-02T01:25:36;3.50;;;3.20;;
26588;SDS011;14235;48.532;8.722;2024-03-02T01:28:03;5.80;;;3.90;;
26588;SDS011;14235;48.532;8.722;2024-03-02T01:30:29;5.18;;;3.80;;
26588;SDS011;14235;48.532;8.722;2024-03-02T01:32:55;5.10;;;3.38;;
26588;SDS011;14235;48.532;8.722;2024-03-02T01:35:20;4.22;;;3.40;;
26588;SDS011;14235;48.532;8.722;2024-03-02T01:37:46;4.10;;;3.70;;
26588;SDS011;14235;48.532;8.722;2024-03-02T01:40:12;3.42;;;3.13;;
26588;SDS011;14235;48.532;8.722;2024-03-02T01:42:38;3.85;;;3.20;;
26588;SDS011;14235;48.532;8.722;2024-03-02T01:45:08;3.50;;;3.20;;
26588;SDS011;14235;48.532;8.722;2024-03-02T01:47:34;3.13;;;2.83;;
26588;SDS011;14235;48.532;8.722;2024-03-02T01:50:00;5.10;;;3.58;;
26588;SDS011;14235;48.532;8.722;2024-03-02T01:52:27;5.78;;;3.20;;
26588;SDS011;14235;48.532;8.722;2024-03-02T01:54:53;3.75;;;3.42;;
26588;SDS011;14235;48.532;8.722;2024-03-02T01:57:19;3.40;;;3.10;;
26588;SDS011;14235;48.532;8.722;2024-03-02T01:59:45;3.67;;;3.17;;
26588;SDS011;14235;48.532;8.722;2024-03-02T02:02:15;5.60;;;3.47;;
26588;SDS011;14235;48.532;8.722;2024-03-02T02:04:41;4.30;;;3.70;;
26588;SDS011;14235;48.532;8.722;2024-03-02T02:07:08;5.75;;;3.80;;
26588;SDS011;14235;48.532;8.722;2024-03-02T02:09:34;3.63;;;3.33;;
26588;SDS011;14235;48.532;8.722;2024-03-02T02:12:00;4.70;;;3.88;;
26588;SDS011;14235;48.532;8.722;2024-03-02T02:14:26;3.92;;;3.60;;
26588;SDS011;14235;48.532;8.722;2024-03-02T02:16:52;4.30;;;3.60;;
26588;SDS011;14235;48.532;8.722;2024-03-02T02:19:18;5.10;;;3.47;;
26588;SDS011;14235;48.532;8.722;2024-03-02T02:21:44;4.10;;;3.70;;
26588;SDS011;14235;48.532;8.722;2024-03-02T02:24:10;3.53;;;3.22;;
26588;SDS011;14235;48.532;8.722;2024-03-02T02:26:38;3.75;;;3.40;;
26588;SDS011;14235;48.532;8.722;2024-03-02T02:29:04;4.18;;;3.40;;
26588;SDS011;14235;48.532;8.722;2024-03-02T02:31:37;4.18;;;3.80;;
26588;SDS011;14235;48.532;8.722;2024-03-02T02:34:03;3.80;;;3.40;;
26588;SDS011;14235;48.532;8.722;2024-03-02T02:36:29;4.95;;;3.75;;
26588;SDS011;14235;48.532;8.722;2024-03-02T02:38:55;3.80;;;3.42;;
26588;SDS011;14235;48.532;8.722;2024-03-02T02:41:21;3.58;;;3.28;;
26588;SDS011;14235;48.532;8.722;2024-03-02T02:43:47;4.75;;;3.60;;
26588;SDS011;14235;48.532;8.722;2024-03-02T02:46:13;4.10;;;3.65;;
26588;SDS011;14235;48.532;8.722;2024-03-02T02:48:39;4.95;;;3.65;;
26588;SDS011;14235;48.532;8.722;2024-03-02T02:51:05;3.53;;;3.17;;
26588;SDS011;14235;48.532;8.722;2024-03-02T02:53:31;3.90;;;3.55;;
26588;SDS011;14235;48.532;8.722;2024-03-02T02:55:57;3.97;;;3.55;;
26588;SDS011;14235;48.532;8.722;2024-03-02T02:58:23;4.93;;;3.40;;
26588;SDS011;14235;48.532;8.722;2024-03-02T03:00:49;3.33;;;3.03;;
26588;SDS011;14235;48.532;8.722;2024-03-02T03:03:15;4.72;;;3.80;;
26588;SDS011;14235;48.532;8.722;2024-03-02T03:05:41;3.78;;;3.17;;
26588;SDS011;14235;48.532;8.722;2024-03-02T03:08:07;3.55;;;3.25;;
26588;SDS011;14235;48.532;8.722;2024-03-02T03:10:33;4.28;;;3.22;;
26588;SDS011;14235;48.532;8.722;2024-03-02T03:12:59;3.10;;;2.90;;
26588;SDS011;14235;48.532;8.722;2024-03-02T03:15:25;3.67;;;3.38;;
26588;SDS011;14235;48.532;8.722;2024-03-02T03:17:51;7.82;;;3.70;;
26588;SDS011;14235;48.532;8.722;2024-03-02T03:20:16;4.10;;;3.30;;
26588;SDS011;14235;48.532;8.722;2024-03-02T03:22:42;3.75;;;3.35;;
26588;SDS011;14235;48.532;8.722;2024-03-02T03:25:09;4.30;;;3.40;;
26588;SDS011;14235;48.532;8.722;2024-03-02T03:27:35;5.22;;;3.38;;
26588;SDS011;14235;48.532;8.722;2024-03-02T03:30:01;4.75;;;3.38;;
26588;SDS011;14235;48.532;8.722;2024-03-02T03:32:27;3.58;;;3.28;;
26588;SDS011;14235;48.532;8.722;2024-03-02T03:34:53;4.25;;;3.45;;
26588;SDS011;14235;48.532;8.722;2024-03-02T03:37:19;4.63;;;3.15;;
26588;SDS011;14235;48.532;8.722;2024-03-02T03:39:45;5.68;;;3.33;;
26588;SDS011;14235;48.532;8.722;2024-03-02T03:42:11;5.65;;;3.30;;
26588;SDS011;14235;48.532;8.722;2024-03-02T03:44:37;7.55;;;3.65;;
26588;SDS011;14235;48.532;8.722;2024-03-02T03:47:05;5.63;;;3.75;;
26588;SDS011;14235;48.532;8.722;2024-03-02T03:49:31;3.85;;;3.45;;
26588;SDS011;14235;48.532;8.722;2024-03-02T03:51:57;3.88;;;3.47;;
26588;SDS011;14235;48.532;8.722;2024-03-02T03:54:23;4.07;;;3.67;;
26588;SDS011;14235;48.532;8.722;2024-03-02T03:56:49;6.65;;;3.35;;
26588;SDS011;14235;48.532;8.722;2024-03-02T03:59:15;5.35;;;3.30;;
26588;SDS011;14235;48.532;8.722;2024-03-02T04:01:41;3.55;;;3.13;;
26588;SDS011;14235;48.532;8.722;2024-03-02T04:04:07;3.40;;;3.10;;
26588;SDS011;14235;48.532;8.722;2024-03-02T04:06:33;4.63;;;3.27;;
26588;SDS011;14235;48.532;8.722;2024-03-02T04:08:59;3.90;;;3.50;;
26588;SDS011;14235;48.532;8.722;2024-03-02T04:11:25;4.73;;;3.50;;
26588;SDS011;14235;48.532;8.722;2024-03-02T04:13:51;3.30;;;3.10;;
26588;SDS011;14235;48.532;8.722;2024-03-02T04:16:17;5.25;;;3.42;;
26588;SDS011;14235;48.532;8.722;2024-03-02T04:18:43;3.42;;;3.13;;
26588;SDS011;14235;48.532;8.722;2024-03-02T04:21:09;3.40;;;3.10;;
26588;SDS011;14235;48.532;8.722;2024-03-02T04:23:36;4.70;;;3.67;;
26588;SDS011;14235;48.532;8.722;2024-03-02T04:26:02;4.82;;;3.50;;
26588;SDS011;14235;48.532;8.722;2024-03-02T04:28:28;5.03;;;3.70;;
26588;SDS011;14235;48.532;8.722;2024-03-02T04:30:54;5.10;;;3.90;;
26588;SDS011;14235;48.532;8.722;2024-03-02T04:33:20;6.20;;;3.47;;
26588;SDS011;14235;48.532;8.722;2024-03-02T04:35:46;3.92;;;3.40;;
26588;SDS011;14235;48.532;8.722;2024-03-02T04:38:12;5.07;;;3.80;;
26588;SDS011;14235;48.532;8.722;2024-03-02T04:40:38;4.97;;;3.63;;
26588;SDS011;14235;48.532;8.722;2024-03-02T04:43:03;5.80;;;3.40;;
26588;SDS011;14235;48.532;8.722;2024-03-02T04:45:29;4.60;;;3.57;;
26588;SDS011;14235;48.532;8.722;2024-03-02T04:47:55;3.67;;;3.37;;
26588;SDS011;14235;48.532;8.722;2024-03-02T04:50:21;4.13;;;3.50;;
26588;SDS011;14235;48.532;8.722;2024-03-02T04:52:47;5.15;;;3.83;;
26588;SDS011;14235;48.532;8.722;2024-03-02T04:55:13;5.00;;;3.63;;
26588;SDS011;14235;48.532;8.722;2024-03-02T04:58:08;4.13;;;3.72;;
26588;SDS011;14235;48.532;8.722;2024-03-02T05:00:34;4.30;;;3.63;;
26588;SDS011;14235;48.532;8.722;2024-03-02T05:03:00;5.15;;;3.90;;
26588;SDS011;14235;48.532;8.722;2024-03-02T05:05:26;4.07;;;3.37;;
26588;SDS011;14235;48.532;8.722;2024-03-02T05:07:52;4.87;;;3.67;;
26588;SDS011;14235;48.532;8.722;2024-03-02T05:10:18;5.10;;;3.70;;
26588;SDS011;14235;48.532;8.722;2024-03-02T05:12:44;5.10;;;3.47;;
26588;SDS011;14235;48.532;8.722;2024-03-02T05:15:11;4.40;;;3.63;;
26588;SDS011;14235;48.532;8.722;2024-03-02T05:17:37;4.10;;;3.27;;
26588;SDS011;14235;48.532;8.722;2024-03-02T05:20:04;6.35;;;4.10;;
26588;SDS011;14235;48.532;8.722;2024-03-02T05:22:30;4.82;;;4.05;;
26588;SDS011;14235;48.532;8.722;2024-03-02T05:24:56;4.32;;;3.60;;
26588;SDS011;14235;48.532;8.722;2024-03-02T05:27:24;4.40;;;4.00;;
26588;SDS011;14235;48.532;8.722;2024-03-02T05:29:50;5.67;;;3.90;;
26588;SDS011;14235;48.532;8.722;2024-03-02T05:32:16;5.57;;;4.00;;
26588;SDS011;14235;48.532;8.722;2024-03-02T05:34:42;5.00;;;3.87;;
26588;SDS011;14235;48.532;8.722;2024-03-02T05:37:07;5.10;;;3.83;;
26588;SDS011;14235;48.532;8.722;2024-03-02T05:39:33;4.80;;;3.70;;
26588;SDS011;14235;48.532;8.722;2024-03-02T05:41:59;4.83;;;3.67;;
26588;SDS011;14235;48.532;8.722;2024-03-02T05:44:25;4.20;;;3.40;;
26588;SDS011;14235;48.532;8.722;2024-03-02T05:46:51;5.87;;;4.13;;
26588;SDS011;14235;48.532;8.722;2024-03-02T05:49:17;5.57;;;4.33;;
26588;SDS011;14235;48.532;8.722;2024-03-02T05:51:44;4.77;;;3.70;;
26588;SDS011;14235;48.532;8.722;2024-03-02T05:54:10;4.87;;;4.07;;
26588;SDS011;14235;48.532;8.722;2024-03-02T05:56:36;4.97;;;3.53;;
26588;SDS011;14235;48.532;8.722;2024-03-02T05:59:02;5.60;;;3.60;;
26588;SDS011;14235;48.532;8.722;2024-03-02T06:01:46;6.70;;;4.20;;
26588;SDS011;14235;48.532;8.722;2024-03-02T06:04:13;5.40;;;4.17;;
26588;SDS011;14235;48.532;8.722;2024-03-02T06:06:42;6.97;;;3.77;;
26588;SDS011;14235;48.532;8.722;2024-03-02T06:09:08;5.57;;;4.37;;
26588;SDS011;14235;48.532;8.722;2024-03-02T06:11:37;5.13;;;4.03;;
26588;SDS011;14235;48.532;8.722;2024-03-02T06:14:03;5.07;;;3.80;;
26588;SDS011;14235;48.532;8.722;2024-03-02T06:16:29;5.00;;;4.07;;
26588;SDS011;14235;48.532;8.722;2024-03-02T06:18:55;4.07;;;3.47;;
26588;SDS011;14235;48.532;8.722;2024-03-02T06:21:25;4.93;;;4.10;;
26588;SDS011;14235;48.532;8.722;2024-03-02T06:23:51;4.63;;;4.10;;
26588;SDS011;14235;48.532;8.722;2024-03-02T06:26:17;4.67;;;3.87;;
26588;SDS011;14235;48.532;8.722;2024-03-02T06:28:44;5.17;;;3.97;;
26588;SDS011;14235;48.532;8.722;2024-03-02T06:31:10;6.13;;;4.87;;
26588;SDS011;14235;48.532;8.722;2024-03-02T06:33:36;6.33;;;4.53;;
26588;SDS011;14235;48.532;8.722;2024-03-02T06:36:02;6.00;;;5.00;;
26588;SDS011;14235;48.532;8.722;2024-03-02T06:38:28;7.07;;;4.38;;
26588;SDS011;14235;48.532;8.722;2024-03-02T06:40:54;5.47;;;4.33;;
26588;SDS011;14235;48.532;8.722;2024-03-02T06:43:20;5.37;;;4.50;;
26588;SDS011;14235;48.532;8.722;2024-03-02T06:45:49;6.47;;;5.30;;
26588;SDS011;14235;48.532;8.722;2024-03-02T06:48:16;6.20;;;4.60;;
26588;SDS011;14235;48.532;8.722;2024-03-02T06:50:45;7.97;;;5.77;;
26588;SDS011;14235;48.532;8.722;2024-03-02T06:53:11;4.97;;;4.47;;
26588;SDS011;14235;48.532;8.722;2024-03-02T06:55:37;7.43;;;4.70;;
26588;SDS011;14235;48.532;8.722;2024-03-02T06:58:03;7.97;;;5.47;;
26588;SDS011;14235;48.532;8.722;2024-03-02T07:00:29;6.13;;;5.40;;
26588;SDS011;14235;48.532;8.722;2024-03-02T07:02:55;6.53;;;4.80;;
26588;SDS011;14235;48.532;8.722;2024-03-02T07:05:21;8.20;;;5.27;;
26588;SDS011;14235;48.532;8.722;2024-03-02T07:07:47;7.90;;;6.40;;
26588;SDS011;14235;48.532;8.722;2024-03-02T07:10:13;9.13;;;6.40;;
26588;SDS011;14235;48.532;8.722;2024-03-02T07:12:39;6.47;;;5.40;;
26588;SDS011;14235;48.532;8.722;2024-03-02T07:15:06;4.93;;;4.50;;
26588;SDS011;14235;48.532;8.722;2024-03-02T07:17:32;6.77;;;5.47;;
26588;SDS011;14235;48.532;8.722;2024-03-02T07:19:58;7.73;;;5.83;;
26588;SDS011;14235;48.532;8.722;2024-03-02T07:22:24;6.63;;;5.60;;
26588;SDS011;14235;48.532;8.722;2024-03-02T07:24:50;5.60;;;4.88;;
26588;SDS011;14235;48.532;8.722;2024-03-02T07:27:16;5.00;;;4.50;;
26588;SDS011;14235;48.532;8.722;2024-03-02T07:29:43;5.07;;;4.57;;
26588;SDS011;14235;48.532;8.722;2024-03-02T07:32:09;6.67;;;5.17;;
26588;SDS011;14235;48.532;8.722;2024-03-02T07:34:35;6.50;;;5.53;;
26588;SDS011;14235;48.532;8.722;2024-03-02T07:37:02;7.07;;;5.83;;
26588;SDS011;14235;48.532;8.722;2024-03-02T07:39:28;6.97;;;5.63;;
26588;SDS011;14235;48.532;8.722;2024-03-02T07:41:55;6.53;;;5.40;;
26588;SDS011;14235;48.532;8.722;2024-03-02T07:44:21;8.20;;;6.30;;
26588;SDS011;14235;48.532;8.722;2024-03-02T07:46:47;7.07;;;5.90;;
26588;SDS011;14235;48.532;8.722;2024-03-02T07:49:16;7.27;;;6.10;;
26588;SDS011;14235;48.532;8.722;2024-03-02T07:51:42;8.07;;;6.00;;
26588;SDS011;14235;48.532;8.722;2024-03-02T07:54:08;7.13;;;5.60;;
26588;SDS011;14235;48.532;8.722;2024-03-02T07:56:34;6.03;;;4.68;;
26588;SDS011;14235;48.532;8.722;2024-03-02T07:59:01;6.97;;;5.20;;
26588;SDS011;14235;48.532;8.722;2024-03-02T08:01:31;6.47;;;4.77;;
26588;SDS011;14235;48.532;8.722;2024-03-02T08:03:57;5.67;;;5.07;;
26588;SDS011;14235;48.532;8.722;2024-03-02T08:06:27;6.13;;;5.10;;
26588;SDS011;14235;48.532;8.722;2024-03-02T08:09:00;8.13;;;6.83;;
26588;SDS011;14235;48.532;8.722;2024-03-02T08:11:26;7.80;;;6.03;;
26588;SDS011;14235;48.532;8.722;2024-03-02T08:13:52;6.50;;;5.65;;
26588;SDS011;14235;48.532;8.722;2024-03-02T08:16:20;6.45;;;5.80;;
26588;SDS011;14235;48.532;8.722;2024-03-02T08:18:47;5.93;;;5.32;;
26588;SDS011;14235;48.532;8.722;2024-03-02T08:21:13;6.40;;;5.80;;
26588;SDS011;14235;48.532;8.722;2024-03-02T08:23:39;5.78;;;5.18;;
26588;SDS011;14235;48.532;8.722;2024-03-02T08:26:07;5.90;;;5.13;;
26588;SDS011;14235;48.532;8.722;2024-03-02T08:28:32;5.53;;;5.03;;
26588;SDS011;14235;48.532;8.722;2024-03-02T08:30:59;6.57;;;5.07;;
26588;SDS011;14235;48.532;8.722;2024-03-02T08:33:25;6.28;;;5.68;;
26588;SDS011;14235;48.532;8.722;2024-03-02T08:35:51;6.10;;;5.22;;
26588;SDS011;14235;48.532;8.722;2024-03-02T08:38:17;5.75;;;5.20;;
26588;SDS011;14235;48.532;8.722;2024-03-02T08:40:43;6.03;;;5.28;;
26588;SDS011;14235;48.532;8.722;2024-03-02T08:43:09;7.10;;;6.00;;
26588;SDS011;14235;48.532;8.722;2024-03-02T08:45:35;6.97;;;5.88;;
26588;SDS011;14235;48.532;8.722;2024-03-02T08:48:02;6.78;;;5.70;;
26588;SDS011;14235;48.532;8.722;2024-03-02T08:50:28;6.90;;;5.80;;
26588;SDS011;14235;48.532;8.722;2024-03-02T08:52:54;9.10;;;6.47;;
26588;SDS011;14235;48.532;8.722;2024-03-02T08:55:20;7.47;;;6.53;;
26588;SDS011;14235;48.532;8.722;2024-03-02T08:57:46;8.68;;;7.43;;
26588;SDS011;14235;48.532;8.722;2024-03-02T09:00:15;7.93;;;6.88;;
26588;SDS011;14235;48.532;8.722;2024-03-02T09:02:43;7.32;;;6.55;;
26588;SDS011;14235;48.532;8.722;2024-03-02T09:05:09;8.00;;;6.57;;
26588;SDS011;14235;48.532;8.722;2024-03-02T09:07:35;8.65;;;7.00;;
26588;SDS011;14235;48.532;8.722;2024-03-02T09:10:03;7.55;;;6.57;;
26588;SDS011;14235;48.532;8.722;2024-03-02T09:12:29;7.05;;;6.35;;
26588;SDS011;14235;48.532;8.722;2024-03-02T09:14:55;8.68;;;7.13;;
26588;SDS011;14235;48.532;8.722;2024-03-02T09:17:22;8.00;;;7.20;;
26588;SDS011;14235;48.532;8.722;2024-03-02T09:19:48;11.50;;;8.45;;
26588;SDS011;14235;48.532;8.722;2024-03-02T09:22:17;9.00;;;7.63;;
26588;SDS011;14235;48.532;8.722;2024-03-02T09:24:43;10.10;;;8.38;;
26588;SDS011;14235;48.532;8.722;2024-03-02T09:27:09;11.18;;;7.88;;
26588;SDS011;14235;48.532;8.722;2024-03-02T09:29:35;11.20;;;8.15;;
26588;SDS011;14235;48.532;8.722;2024-03-02T09:32:01;8.07;;;7.10;;
26588;SDS011;14235;48.532;8.722;2024-03-02T09:34:27;8.18;;;7.20;;
26588;SDS011;14235;48.532;8.722;2024-03-02T09:36:53;11.35;;;7.97;;
26588;SDS011;14235;48.532;8.722;2024-03-02T09:39:19;9.57;;;7.88;;
26588;SDS011;14235;48.532;8.722;2024-03-02T09:41:45;10.70;;;9.18;;
26588;SDS011;14235;48.532;8.722;2024-03-02T09:44:12;10.73;;;8.07;;
26588;SDS011;14235;48.532;8.722;2024-03-02T09:46:41;10.88;;;8.00;;
26588;SDS011;14235;48.532;8.722;2024-03-02T09:49:09;8.48;;;7.05;;
26588;SDS011;14235;48.532;8.722;2024-03-02T09:51:35;10.80;;;7.65;;
26588;SDS011;14235;48.532;8.722;2024-03-02T09:54:01;8.10;;;7.25;;
26588;SDS011;14235;48.532;8.722;2024-03-02T09:56:27;8.50;;;7.50;;
26588;SDS011;14235;48.532;8.722;2024-03-02T09:58:53;8.80;;;7.80;;
26588;SDS011;14235;48.532;8.722;2024-03-02T10:01:19;9.05;;;7.40;;
26588;SDS011;14235;48.532;8.722;2024-03-02T10:03:45;8.65;;;7.53;;
26588;SDS011;14235;48.532;8.722;2024-03-02T10:08:47;8.05;;;7.18;;
26588;SDS011;14235;48.532;8.722;2024-03-02T10:14:15;9.07;;;7.15;;
26588;SDS011;14235;48.532;8.722;2024-03-02T10:16:41;6.97;;;6.28;;
26588;SDS011;14235;48.532;8.722;2024-03-02T10:19:17;8.57;;;6.70;;
26588;SDS011;14235;48.532;8.722;2024-03-02T10:21:44;8.23;;;6.13;;
26588;SDS011;14235;48.532;8.722;2024-03-02T10:24:10;7.20;;;6.05;;
26588;SDS011;14235;48.532;8.722;2024-03-02T10:26:36;6.25;;;5.65;;
26588;SDS011;14235;48.532;8.722;2024-03-02T10:29:02;6.70;;;6.00;;
26588;SDS011;14235;48.532;8.722;2024-03-02T10:31:28;6.93;;;5.65;;
26588;SDS011;14235;48.532;8.722;2024-03-02T10:33:54;7.13;;;5.68;;
26588;SDS011;14235;48.532;8.722;2024-03-02T10:36:20;5.78;;;5.18;;
26588;SDS011;14235;48.532;8.722;2024-03-02T10:38:47;5.97;;;5.25;;
26588;SDS011;14235;48.532;8.722;2024-03-02T10:41:16;5.45;;;4.95;;
26588;SDS011;14235;48.532;8.722;2024-03-02T10:43:43;5.10;;;4.60;;
26588;SDS011;14235;48.532;8.722;2024-03-02T10:46:09;6.72;;;4.90;;
26588;SDS011;14235;48.532;8.722;2024-03-02T10:48:36;4.70;;;4.30;;
26588;SDS011;14235;48.532;8.722;2024-03-02T10:51:02;5.57;;;4.57;;
26588;SDS011;14235;48.532;8.722;2024-03-02T10:53:28;6.32;;;4.60;;
26588;SDS011;14235;48.532;8.722;2024-03-02T10:55:57;5.45;;;4.78;;
26588;SDS011;14235;48.532;8.722;2024-03-02T10:58:29;5.88;;;4.57;;
26588;SDS011;14235;48.532;8.722;2024-03-02T11:00:57;5.50;;;4.45;;
26588;SDS011;14235;48.532;8.722;2024-03-02T11:03:24;5.28;;;4.72;;
26588;SDS011;14235;48.532;8.722;2024-03-02T11:05:50;4.57;;;4.10;;
26588;SDS011;14235;48.532;8.722;2024-03-02T11:08:17;4.45;;;4.05;;
26588;SDS011;14235;48.532;8.722;2024-03-02T11:10:51;4.30;;;4.00;;
26588;SDS011;14235;48.532;8.722;2024-03-02T11:13:20;4.28;;;3.88;;
26588;SDS011;14235;48.532;8.722;2024-03-02T11:15:49;5.20;;;3.80;;
26588;SDS011;14235;48.532;8.722;2024-03-02T11:18:17;5.35;;;3.50;;
26588;SDS011;14235;48.532;8.722;2024-03-02T11:20:44;3.38;;;3.08;;
26588;SDS011;14235;48.532;8.722;2024-03-02T11:23:11;3.40;;;3.10;;
26588;SDS011;14235;48.532;8.722;2024-03-02T11:25:37;3.58;;;3.20;;
26588;SDS011;14235;48.532;8.722;2024-03-02T11:28:05;3.28;;;3.00;;
26588;SDS011;14235;48.532;8.722;2024-03-02T11:33:06;2.92;;;2.72;;
26588;SDS011;14235;48.532;8.722;2024-03-02T11:35:33;2.85;;;2.65;;
26588;SDS011;14235;48.532;8.722;2024-03-02T11:37:59;2.90;;;2.60;;
26588;SDS011;14235;48.532;8.722;2024-03-02T11:40:25;3.15;;;2.83;;
26588;SDS011;14235;48.532;8.722;2024-03-02T11:42:51;2.75;;;2.55;;
26588;SDS011;14235;48.532;8.722;2024-03-02T11:45:17;2.80;;;2.60;;
26588;SDS011;14235;48.532;8.722;2024-03-02T11:47:46;4.43;;;2.55;;
26588;SDS011;14235;48.532;8.722;2024-03-02T11:50:15;2.78;;;2.50;;
26588;SDS011;14235;48.532;8.722;2024-03-02T11:52:41;2.78;;;2.58;;
26588;SDS011;14235;48.532;8.722;2024-03-02T11:55:08;3.10;;;2.90;;
26588;SDS011;14235;48.532;8.722;2024-03-02T11:57:34;3.70;;;3.40;;
26588;SDS011;14235;48.532;8.722;2024-03-02T12:00:00;3.63;;;2.92;;
26588;SDS011;14235;48.532;8.722;2024-03-02T12:02:28;2.60;;;2.40;;
26588;SDS011;14235;48.532;8.722;2024-03-02T12:04:54;3.25;;;2.97;;
26588;SDS011;14235;48.532;8.722;2024-03-02T12:07:22;3.05;;;2.10;;
26588;SDS011;14235;48.532;8.722;2024-03-02T12:09:49;2.33;;;2.15;;
26588;SDS011;14235;48.532;8.722;2024-03-02T12:12:15;2.08;;;1.98;;
26588;SDS011;14235;48.532;8.722;2024-03-02T12:14:51;1.90;;;1.80;;
26588;SDS011;14235;48.532;8.722;2024-03-02T12:17:18;2.70;;;2.50;;
26588;SDS011;14235;48.532;8.722;2024-03-02T12:19:44;3.70;;;3.00;;
26588;SDS011;14235;48.532;8.722;2024-03-02T12:22:11;2.78;;;2.58;;
26588;SDS011;14235;48.532;8.722;2024-03-02T12:24:37;2.70;;;2.30;;
26588;SDS011;14235;48.532;8.722;2024-03-02T12:27:03;2.35;;;2.15;;
26588;SDS011;14235;48.532;8.722;2024-03-02T12:29:29;2.45;;;2.20;;
26588;SDS011;14235;48.532;8.722;2024-03-02T12:31:55;2.03;;;1.92;;
26588;SDS011;14235;48.532;8.722;2024-03-02T12:34:21;2.13;;;1.92;;
26588;SDS011;14235;48.532;8.722;2024-03-02T12:36:48;2.30;;;2.10;;
26588;SDS011;14235;48.532;8.722;2024-03-02T12:39:17;2.40;;;2.20;;
26588;SDS011;14235;48.532;8.722;2024-03-02T12:41:44;2.45;;;2.00;;
26588;SDS011;14235;48.532;8.722;2024-03-02T12:44:10;2.70;;;2.50;;
26588;SDS011;14235;48.532;8.722;2024-03-02T12:46:36;6.05;;;2.50;;
26588;SDS011;14235;48.532;8.722;2024-03-02T12:49:09;2.97;;;2.60;;
26588;SDS011;14235;48.532;8.722;2024-03-02T12:51:39;2.83;;;2.42;;
26588;SDS011;14235;48.532;8.722;2024-03-02T12:54:06;2.00;;;1.90;;
26588;SDS011;14235;48.532;8.722;2024-03-02T12:56:32;2.10;;;2.00;;
26588;SDS011;14235;48.532;8.722;2024-03-02T12:58:58;3.35;;;1.92;;
26588;SDS011;14235;48.532;8.722;2024-03-02T13:01:24;2.00;;;1.90;;
26588;SDS011;14235;48.532;8.722;2024-03-02T13:03:52;1.90;;;1.80;;
26588;SDS011;14235;48.532;8.722;2024-03-02T13:06:18;1.88;;;1.77;;
26588;SDS011;14235;48.532;8.722;2024-03-02T13:08:45;2.08;;;1.98;;
26588;SDS011;14235;48.532;8.722;2024-03-02T13:11:11;2.30;;;2.08;;
26588;SDS011;14235;48.532;8.722;2024-03-02T13:13:38;2.20;;;2.00;;
26588;SDS011;14235;48.532;8.722;2024-03-02T13:16:07;1.70;;;1.60;;
26588;SDS011;14235;48.532;8.722;2024-03-02T13:18:34;1.98;;;1.88;;
26588;SDS011;14235;48.532;8.722;2024-03-02T13:21:00;2.17;;;2.00;;
26588;SDS011;14235;48.532;8.722;2024-03-02T13:23:25;4.15;;;2.03;;
26588;SDS011;14235;48.532;8.722;2024-03-02T13:25:52;1.70;;;1.60;;
26588;SDS011;14235;48.532;8.722;2024-03-02T13:28:18;3.60;;;2.17;;
26588;SDS011;14235;48.532;8.722;2024-03-02T13:30:44;2.95;;;2.05;;
26588;SDS011;14235;48.532;8.722;2024-03-02T13:33:10;1.92;;;1.83;;
26588;SDS011;14235;48.532;8.722;2024-03-02T13:35:36;2.13;;;2.03;;
26588;SDS011;14235;48.532;8.722;2024-03-02T13:38:02;1.83;;;1.73;;
26588;SDS011;14235;48.532;8.722;2024-03-02T13:40:28;3.20;;;2.00;;
26588;SDS011;14235;48.532;8.722;2024-03-02T13:42:55;2.08;;;1.83;;
26588;SDS011;14235;48.532;8.722;2024-03-02T13:45:21;3.30;;;1.83;;
26588;SDS011;14235;48.532;8.722;2024-03-02T13:47:47;1.70;;;1.60;;
26588;SDS011;14235;48.532;8.722;2024-03-02T13:50:13;2.17;;;1.60;;
26588;SDS011;14235;48.532;8.722;2024-03-02T13:52:39;2.60;;;1.50;;
26588;SDS011;14235;48.532;8.722;2024-03-02T13:55:05;2.20;;;2.00;;
26588;SDS011;14235;48.532;8.722;2024-03-02T13:57:32;1.90;;;1.80;;
26588;SDS011;14235;48.532;8.722;2024-03-02T13:59:58;2.13;;;1.90;;
26588;SDS011;14235;48.532;8.722;2024-03-02T14:02:24;1.85;;;1.75;;
26588;SDS011;14235;48.532;8.722;2024-03-02T14:04:51;3.20;;;1.88;;
26588;SDS011;14235;48.532;8.722;2024-03-02T14:07:17;2.30;;;1.63;;
26588;SDS011;14235;48.532;8.722;2024-03-02T14:09:43;2.58;;;2.08;;
26588;SDS011;14235;48.532;8.722;2024-03-02T14:12:09;1.75;;;1.65;;
26588;SDS011;14235;48.532;8.722;2024-03-02T14:14:35;2.03;;;1.80;;
26588;SDS011;14235;48.532;8.722;2024-03-02T14:17:01;2.10;;;2.00;;
26588;SDS011;14235;48.532;8.722;2024-03-02T14:19:31;1.90;;;1.80;;
26588;SDS011;14235;48.532;8.722;2024-03-02T14:21:57;2.42;;;2.22;;
26588;SDS011;14235;48.532;8.722;2024-03-02T14:24:23;2.45;;;2.05;;
26588;SDS011;14235;48.532;8.722;2024-03-02T14:26:51;2.03;;;1.92;;
26588;SDS011;14235;48.532;8.722;2024-03-02T14:29:17;2.40;;;2.20;;
26588;SDS011;14235;48.532;8.722;2024-03-02T14:31:43;1.83;;;1.73;;
26588;SDS011;14235;48.532;8.722;2024-03-02T14:34:13;3.05;;;2.40;;
26588;SDS011;14235;48.532;8.722;2024-03-02T14:36:39;2.75;;;2.55;;
26588;SDS011;14235;48.532;8.722;2024-03-02T14:39:05;2.40;;;2.20;;
26588;SDS011;14235;48.532;8.722;2024-03-02T14:41:35;2.58;;;2.38;;
26588;SDS011;14235;48.532;8.722;2024-03-02T14:44:01;2.33;;;1.60;;
26588;SDS011;14235;48.532;8.722;2024-03-02T14:46:27;1.98;;;1.85;;
26588;SDS011;14235;48.532;8.722;2024-03-02T14:48:53;1.48;;;1.33;;
26588;SDS011;14235;48.532;8.722;2024-03-02T14:51:19;1.67;;;1.58;;
26588;SDS011;14235;48.532;8.722;2024-03-02T14:53:45;2.45;;;1.48;;